createdAt,value
2023-02-13T00:25:03.249Z,18.03
2023-02-13T00:53:58.864Z,17.99
2023-02-13T01:22:58.108Z,17.98
2023-02-13T01:51:40.640Z,17.96
2023-02-13T02:20:32.854Z,17.95
2023-02-13T02:49:30.111Z,17.92
2023-02-13T03:18:32.017Z,17.9
2023-02-13T03:47:36.816Z,17.88
2023-02-13T04:16:40.179Z,17.86
2023-02-13T04:45:26.038Z,17.84
2023-02-13T05:14:37.561Z,17.83
2023-02-13T05:43:31.861Z,17.82
2023-02-13T06:12:32.606Z,18.25
2023-02-13T06:41:21.816Z,18.29
2023-02-13T07:10:14.288Z,18.25
2023-02-13T07:39:11.776Z,18.27
2023-02-13T08:07:41.266Z,18.39
2023-02-13T08:36:31.895Z,18.36
2023-02-13T09:05:19.603Z,18.43
2023-02-13T09:34:15.178Z,18.55
2023-02-13T10:03:09.172Z,18.8
2023-02-13T10:32:10.556Z,19.57
2023-02-13T11:00:50.926Z,19.38
2023-02-13T11:29:42.349Z,19.3
2023-02-13T11:58:33.938Z,19.39
2023-02-13T12:27:23.873Z,19.4
2023-02-13T12:56:17.882Z,19.15
2023-02-13T13:25:12.844Z,18.95
2023-02-13T13:53:45.922Z,18.79
2023-02-13T14:22:36.244Z,18.71
2023-02-13T14:51:26.395Z,18.63
2023-02-13T15:20:14.094Z,18.57
2023-02-13T15:49:00.542Z,18.51
2023-02-13T16:18:01.412Z,18.46
2023-02-13T16:46:57.156Z,18.42
2023-02-13T17:15:47.289Z,18.4
2023-02-13T17:44:44.144Z,18.33
2023-02-13T18:13:45.581Z,18.3
2023-02-13T18:42:38.161Z,18.27
2023-02-13T19:39:57.914Z,18.21
2023-02-13T20:08:54.877Z,18.17
2023-02-13T20:37:52.843Z,18.15
2023-02-13T21:06:47.758Z,18.14
2023-02-13T21:35:44.309Z,18.12
2023-02-13T22:04:24.939Z,18.1
2023-02-13T22:33:18.927Z,18.07
2023-02-13T23:02:11.545Z,18.05
2023-02-13T23:31:05.181Z,18.03
2023-02-13T23:59:52.797Z,18
